Leconfield, United Kingdom
Current Conditions -  °F | °C
As of 8:50 AM on Thursday 23 Oct 2014 (Local Time) from EGXV Reporting Station
Scattered Clouds Scattered Clouds  
Wind Chill: 11°   Ceiling: Unl
Heat Index: 11°   Visibility: 6mi
Dew Point: 10°   Wind: 12mph
Humidity: 94%   Direction: 210°SSW
Pressure: 29.97"   Gusts: NA
Location:  53.88°N, 0.46°W
Report Text: EGXV 230750Z AUTO 21010KT 9999 SCT032/// 11/10 Q1015
Loading
Personal Weather Stations






























Interactive Weather Map
Tropical Storm Tracking
New forecast layout! Learn more

10-Day Weather Forecast

Advertisements
Track Severe Weather on mobile